createdAt,value
2023-03-17T00:02:32.689Z,93.75
2023-03-17T00:05:22.555Z,94.75
2023-03-17T00:07:56.383Z,95.20
2023-03-17T00:10:29.726Z,94.69
2023-03-17T00:13:04.618Z,94.57
2023-03-17T00:15:37.743Z,93.65
2023-03-17T00:18:16.316Z,92.47
2023-03-17T00:20:50.444Z,93.65
2023-03-17T00:23:25.458Z,94.31
2023-03-17T00:25:58.695Z,94.07
2023-03-17T00:28:33.565Z,94.49
2023-03-17T00:31:15.670Z,95.18
2023-03-17T00:33:50.211Z,96.64
2023-03-17T00:36:26.077Z,97.15
2023-03-17T00:39:00.370Z,97.58
2023-03-17T00:41:33.752Z,96.63
2023-03-17T00:44:08.175Z,96.54
2023-03-17T00:46:42.248Z,97.08
2023-03-17T00:49:19.592Z,97.47
2023-03-17T00:51:53.474Z,96.94
2023-03-17T00:54:26.533Z,96.98
2023-03-17T00:56:59.681Z,96.28
2023-03-17T00:59:40.887Z,96.03
2023-03-17T01:02:14.582Z,96.89
2023-03-17T01:04:56.219Z,97.43
2023-03-17T01:07:33.115Z,98.04
2023-03-17T01:10:15.498Z,97.84
2023-03-17T01:12:48.678Z,97.53
2023-03-17T01:15:24.687Z,96.90
2023-03-17T01:17:58.438Z,95.75
2023-03-17T01:20:33.785Z,95.54
2023-03-17T01:23:07.415Z,94.74
2023-03-17T01:25:42.796Z,95.11
2023-03-17T01:28:19.027Z,94.60
2023-03-17T01:30:53.430Z,95.10
2023-03-17T01:33:26.613Z,94.27
2023-03-17T01:35:59.761Z,94.09
2023-03-17T01:38:32.931Z,94.23
2023-03-17T01:41:06.453Z,92.85
2023-03-17T01:43:39.931Z,92.88
2023-03-17T01:46:25.204Z,92.58
2023-03-17T01:49:09.450Z,92.31
2023-03-17T01:52:01.003Z,92.72
2023-03-17T01:54:42.558Z,92.92
2023-03-17T01:57:23.213Z,92.71
2023-03-17T02:00:01.792Z,93.14
2023-03-17T02:02:39.977Z,92.51
2023-03-17T02:05:16.982Z,91.98
2023-03-17T02:07:50.344Z,91.51
2023-03-17T02:10:26.437Z,91.29
2023-03-17T02:13:03.933Z,91.48
2023-03-17T02:15:40.339Z,91.42
2023-03-17T02:18:15.658Z,91.76
2023-03-17T02:21:32.927Z,91.80
2023-03-17T02:24:14.445Z,92.39
2023-03-17T02:26:49.551Z,93.14
2023-03-17T02:29:23.752Z,93.91
2023-03-17T02:31:56.788Z,93.65
2023-03-17T02:34:29.947Z,94.19
2023-03-17T02:37:04.339Z,94.17
2023-03-17T02:39:37.634Z,94.30
2023-03-17T02:42:12.691Z,94.40
2023-03-17T02:44:46.083Z,94.11
2023-03-17T02:47:19.130Z,91.63
2023-03-17T02:49:52.399Z,92.38
2023-03-17T02:52:27.997Z,93.16
2023-03-17T02:55:01.099Z,92.91
2023-03-17T02:57:34.335Z,92.63
2023-03-17T03:00:10.436Z,93.52
2023-03-17T03:02:43.519Z,92.76
2023-03-17T03:05:16.635Z,91.71
2023-03-17T03:07:51.437Z,91.63
2023-03-17T03:10:24.460Z,92.10
2023-03-17T03:12:57.446Z,92.51
2023-03-17T03:15:30.504Z,92.17
2023-03-17T03:18:03.569Z,93.18
2023-03-17T03:20:37.336Z,93.50
2023-03-17T03:23:11.932Z,93.01
2023-03-17T03:25:44.938Z,92.37
2023-03-17T03:28:18.481Z,92.19
2023-03-17T03:30:51.905Z,92.15
2023-03-17T03:33:25.018Z,92.26
2023-03-17T03:35:59.439Z,91.70
2023-03-17T03:38:34.003Z,92.79
2023-03-17T03:41:07.381Z,92.38
2023-03-17T03:43:40.781Z,91.55
2023-03-17T03:46:13.889Z,92.04
2023-03-17T03:48:46.917Z,91.52
2023-03-17T03:51:20.003Z,91.28
2023-03-17T03:53:54.408Z,91.06
2023-03-17T03:56:27.462Z,91.50
2023-03-17T03:59:01.072Z,91.00
2023-03-17T04:01:34.256Z,91.29
2023-03-17T04:04:07.338Z,91.61
2023-03-17T04:06:40.480Z,90.93
2023-03-17T04:09:14.908Z,91.50
2023-03-17T04:11:47.983Z,91.90
2023-03-17T04:14:21.060Z,91.51
2023-03-17T04:16:54.186Z,91.41
2023-03-17T04:19:27.521Z,91.32
2023-03-17T04:22:00.707Z,91.53
2023-03-17T04:24:35.727Z,91.99
2023-03-17T04:27:09.219Z,92.69
2023-03-17T04:29:42.720Z,92.22
2023-03-17T04:32:15.966Z,92.08
2023-03-17T04:34:49.070Z,92.08
2023-03-17T04:37:22.487Z,92.37
2023-03-17T04:39:56.894Z,91.82
2023-03-17T04:42:30.062Z,92.52
2023-03-17T04:45:03.388Z,92.32
2023-03-17T04:47:37.249Z,92.82
2023-03-17T04:50:12.405Z,93.02
2023-03-17T04:52:45.616Z,93.62
2023-03-17T04:55:20.801Z,93.83
2023-03-17T04:57:53.866Z,94.39
2023-03-17T05:00:26.928Z,94.31
2023-03-17T05:03:00.030Z,94.79
2023-03-17T05:05:33.159Z,94.83
2023-03-17T05:08:06.626Z,94.36
2023-03-17T05:10:41.015Z,95.53
2023-03-17T05:13:14.147Z,94.86
2023-03-17T05:15:48.904Z,94.90
2023-03-17T05:18:24.726Z,95.19
2023-03-17T05:20:57.820Z,94.87
2023-03-17T05:23:30.917Z,94.94
2023-03-17T05:26:06.444Z,95.18
2023-03-17T05:28:39.537Z,96.20
2023-03-17T05:31:12.845Z,96.71
2023-03-17T05:33:46.532Z,95.39
2023-03-17T05:36:21.164Z,96.28
2023-03-17T05:38:54.277Z,96.94
2023-03-17T05:41:29.310Z,95.75
2023-03-17T05:44:02.454Z,95.42
2023-03-17T05:46:35.651Z,96.74
2023-03-17T05:49:08.866Z,96.27
2023-03-17T05:51:41.973Z,95.96
2023-03-17T05:54:15.095Z,96.48
2023-03-17T05:56:49.741Z,95.68
2023-03-17T05:59:23.071Z,94.84
2023-03-17T06:01:56.149Z,95.49
2023-03-17T06:04:29.193Z,95.35
2023-03-17T06:07:02.321Z,95.10
2023-03-17T06:09:35.380Z,95.40
2023-03-17T06:12:10.921Z,94.53
2023-03-17T06:14:44.028Z,94.99
2023-03-17T06:17:17.103Z,95.04
2023-03-17T06:19:50.296Z,94.61
2023-03-17T06:22:23.514Z,94.62
2023-03-17T06:24:57.039Z,94.24
2023-03-17T06:27:31.599Z,93.79
2023-03-17T06:30:06.824Z,93.11
2023-03-17T06:32:40.251Z,92.34
2023-03-17T06:35:13.415Z,90.97
2023-03-17T06:37:46.729Z,88.09
2023-03-17T06:40:19.989Z,84.44
2023-03-17T06:42:54.398Z,80.91
2023-03-17T06:45:27.928Z,82.62
2023-03-17T06:48:01.652Z,81.12
2023-03-17T06:50:34.784Z,79.24
2023-03-17T06:53:08.225Z,78.49
2023-03-17T06:55:42.114Z,78.52
2023-03-17T06:58:17.031Z,77.44
2023-03-17T07:00:53.935Z,76.47
2023-03-17T07:03:28.392Z,73.75
2023-03-17T07:06:01.755Z,72.61
2023-03-17T07:08:34.872Z,71.76
2023-03-17T07:11:08.399Z,71.10
2023-03-17T07:13:42.850Z,70.91
2023-03-17T07:16:16.897Z,71.93
2023-03-17T07:18:50.628Z,70.80
2023-03-17T07:21:23.659Z,70.62
2023-03-17T07:23:57.058Z,67.83
2023-03-17T07:26:30.077Z,68.32
2023-03-17T07:29:04.457Z,66.74
2023-03-17T07:31:41.426Z,66.18
2023-03-17T07:34:14.657Z,66.64
2023-03-17T07:36:47.690Z,66.40
2023-03-17T07:39:21.004Z,65.34
2023-03-17T07:41:55.305Z,65.06
2023-03-17T07:44:30.465Z,66.25
2023-03-17T07:47:03.549Z,64.01
2023-03-17T07:49:41.642Z,63.65
2023-03-17T07:52:15.170Z,61.43
2023-03-17T07:54:48.221Z,64.64
2023-03-17T07:57:22.267Z,61.05
2023-03-17T07:59:56.771Z,62.05
2023-03-17T08:02:29.841Z,61.21
2023-03-17T08:05:03.082Z,61.11
2023-03-17T08:07:37.448Z,62.07
2023-03-17T08:10:13.923Z,61.30
2023-03-17T08:12:51.723Z,61.73
2023-03-17T08:15:26.394Z,62.12
2023-03-17T08:17:59.642Z,59.18
2023-03-17T08:20:33.694Z,59.33
2023-03-17T08:23:07.403Z,58.07
2023-03-17T08:25:40.683Z,57.97
2023-03-17T08:28:14.217Z,58.18
2023-03-17T08:30:50.672Z,57.47
2023-03-17T08:33:24.047Z,58.80
2023-03-17T08:35:57.628Z,58.32
2023-03-17T08:38:31.698Z,58.08
2023-03-17T08:41:06.736Z,57.46
2023-03-17T08:43:40.739Z,56.66
2023-03-17T08:46:18.681Z,56.80
2023-03-17T08:48:55.020Z,56.28
2023-03-17T08:51:30.755Z,56.26
2023-03-17T08:54:05.795Z,56.01
2023-03-17T08:56:40.351Z,56.63
2023-03-17T08:59:13.440Z,55.08
2023-03-17T09:01:47.975Z,54.98
2023-03-17T09:04:22.882Z,53.83
2023-03-17T09:07:03.316Z,53.89
2023-03-17T09:09:38.063Z,52.21
2023-03-17T09:12:11.608Z,51.81
2023-03-17T09:14:45.208Z,51.46
2023-03-17T09:17:20.373Z,48.89
2023-03-17T09:19:53.476Z,50.20
2023-03-17T09:22:27.072Z,49.54
2023-03-17T09:25:00.655Z,48.49
2023-03-17T09:27:33.808Z,46.75
2023-03-17T09:30:10.483Z,45.91
2023-03-17T09:32:46.069Z,46.05
2023-03-17T09:35:19.527Z,45.09
2023-03-17T09:37:52.748Z,45.08
2023-03-17T09:40:34.583Z,43.15
2023-03-17T09:43:24.859Z,42.82
2023-03-17T09:45:58.026Z,42.43
2023-03-17T09:48:46.407Z,42.30
2023-03-17T09:51:20.419Z,41.91
2023-03-17T09:54:00.550Z,40.70
2023-03-17T09:56:35.874Z,40.07
2023-03-17T09:59:30.300Z,39.66
2023-03-17T10:02:03.558Z,39.54
2023-03-17T10:04:38.308Z,40.91
2023-03-17T10:07:16.946Z,38.89
2023-03-17T10:10:00.966Z,37.98
2023-03-17T10:12:47.416Z,39.57
2023-03-17T10:15:27.840Z,38.91
2023-03-17T10:18:02.472Z,38.74
2023-03-17T10:20:50.473Z,38.60
2023-03-17T10:23:31.291Z,38.28
2023-03-17T10:26:09.968Z,38.66
2023-03-17T10:28:43.707Z,39.76
2023-03-17T10:31:19.951Z,39.82
2023-03-17T10:33:53.760Z,40.10
2023-03-17T10:36:42.449Z,40.39
2023-03-17T10:39:20.716Z,39.77
2023-03-17T10:41:58.204Z,38.04
2023-03-17T10:44:43.058Z,38.31
2023-03-17T10:47:31.617Z,38.73
2023-03-17T10:50:20.263Z,38.62
2023-03-17T10:52:59.480Z,38.22
2023-03-17T10:55:40.800Z,38.81
2023-03-17T10:58:18.686Z,38.61
2023-03-17T11:00:57.808Z,37.38
2023-03-17T11:03:34.394Z,36.35
2023-03-17T11:06:10.096Z,37.21
2023-03-17T11:08:50.114Z,35.33
2023-03-17T11:11:27.198Z,36.79
2023-03-17T11:14:04.745Z,36.88
2023-03-17T11:16:40.755Z,37.19
2023-03-17T11:19:17.407Z,35.96
2023-03-17T11:21:59.858Z,35.86
2023-03-17T11:24:41.642Z,36.18
2023-03-17T11:27:28.106Z,35.23
2023-03-17T11:30:18.708Z,35.31
2023-03-17T11:32:59.090Z,35.87
2023-03-17T11:35:44.101Z,36.53
2023-03-17T11:38:25.961Z,36.48
2023-03-17T11:41:38.822Z,36.83
2023-03-17T11:44:44.095Z,36.15
2023-03-17T11:47:40.703Z,35.60
2023-03-17T11:50:26.556Z,34.56
2023-03-17T11:53:18.727Z,34.75
2023-03-17T11:55:57.788Z,35.42
2023-03-17T11:58:37.480Z,34.07
2023-03-17T12:01:14.365Z,34.66
2023-03-17T12:03:51.707Z,35.07
2023-03-17T12:06:31.782Z,33.36
2023-03-17T12:09:20.162Z,31.71
2023-03-17T12:11:54.861Z,32.52
2023-03-17T12:14:34.525Z,32.97
2023-03-17T12:17:13.738Z,33.37
2023-03-17T12:20:05.587Z,32.66
2023-03-17T12:22:44.434Z,32.38
2023-03-17T12:25:25.654Z,31.50
2023-03-17T12:28:05.589Z,32.30
2023-03-17T12:30:48.694Z,32.70
2023-03-17T12:33:29.173Z,32.65
2023-03-17T12:36:04.909Z,33.15
2023-03-17T12:38:41.421Z,31.70
2023-03-17T12:41:44.985Z,31.03
2023-03-17T12:44:34.403Z,31.04
2023-03-17T12:47:37.866Z,30.57
2023-03-17T12:50:48.360Z,30.03
2023-03-17T12:53:29.617Z,30.73
2023-03-17T12:56:11.843Z,32.30
2023-03-17T12:58:47.618Z,29.75
2023-03-17T13:01:32.999Z,29.78
2023-03-17T13:04:18.428Z,30.27
2023-03-17T13:07:00.748Z,30.30
2023-03-17T13:10:14.090Z,30.45
2023-03-17T13:13:08.816Z,30.59
2023-03-17T13:16:00.501Z,29.93
2023-03-17T13:18:53.077Z,31.02
2023-03-17T13:21:28.800Z,30.76
2023-03-17T13:24:37.279Z,30.04
2023-03-17T13:27:14.431Z,30.58
2023-03-17T13:29:48.681Z,29.57
2023-03-17T13:32:39.695Z,31.05
2023-03-17T13:35:42.817Z,28.32
2023-03-17T13:38:52.478Z,29.16
2023-03-17T13:41:50.796Z,28.49
2023-03-17T13:44:48.211Z,27.30
2023-03-17T13:47:34.766Z,27.89
2023-03-17T13:50:14.788Z,28.32
2023-03-17T13:52:51.321Z,29.73
2023-03-17T13:55:41.277Z,30.48
2023-03-17T13:58:35.214Z,31.25
2023-03-17T14:01:15.036Z,31.19
2023-03-17T14:03:51.200Z,30.52
2023-03-17T14:06:31.279Z,30.66
2023-03-17T14:09:18.396Z,29.90
2023-03-17T14:11:53.455Z,29.38
2023-03-17T14:14:39.275Z,29.35
2023-03-17T14:17:17.817Z,29.35
2023-03-17T14:20:19.708Z,30.48
2023-03-17T14:22:56.901Z,29.96
2023-03-17T14:25:35.284Z,30.17
2023-03-17T14:28:18.421Z,29.52
2023-03-17T14:30:55.032Z,30.00
2023-03-17T14:33:30.868Z,29.01
2023-03-17T14:36:08.328Z,30.10
2023-03-17T14:38:49.042Z,31.82
2023-03-17T14:41:24.530Z,32.00
2023-03-17T14:44:01.959Z,31.92
2023-03-17T14:46:38.046Z,32.99
2023-03-17T14:49:19.880Z,33.66
2023-03-17T14:51:56.178Z,32.49
2023-03-17T14:54:33.828Z,31.94
2023-03-17T14:57:09.426Z,32.33
2023-03-17T14:59:46.281Z,33.71
2023-03-17T15:02:24.703Z,33.59
2023-03-17T15:05:04.658Z,34.13
2023-03-17T15:07:41.125Z,34.81
2023-03-17T15:10:17.601Z,36.03
2023-03-17T15:12:51.197Z,35.25
2023-03-17T15:15:30.798Z,36.28
2023-03-17T15:18:12.462Z,36.28
2023-03-17T15:20:45.878Z,36.42
2023-03-17T15:23:22.202Z,36.64
2023-03-17T15:25:57.487Z,37.19
2023-03-17T15:28:33.226Z,36.99
2023-03-17T15:31:14.522Z,37.07
2023-03-17T15:33:47.849Z,38.01
2023-03-17T15:36:32.394Z,37.63
2023-03-17T15:39:06.606Z,38.62
2023-03-17T15:41:39.777Z,38.26
2023-03-17T15:44:12.878Z,38.52
2023-03-17T15:46:47.872Z,38.67
2023-03-17T15:49:24.708Z,39.56
2023-03-17T15:51:59.037Z,39.48
2023-03-17T15:54:32.175Z,39.72
2023-03-17T15:57:06.165Z,39.87
2023-03-17T15:59:39.333Z,39.88
2023-03-17T16:02:28.527Z,40.10
2023-03-17T16:05:05.583Z,40.63
2023-03-17T16:07:38.700Z,40.02
2023-03-17T16:10:23.673Z,40.28
2023-03-17T16:12:57.702Z,39.73
2023-03-17T16:15:35.099Z,39.81
2023-03-17T16:18:16.764Z,40.41
2023-03-17T16:20:52.209Z,40.36
2023-03-17T16:23:28.256Z,40.36
2023-03-17T16:26:14.154Z,40.52
2023-03-17T16:28:49.400Z,40.46
2023-03-17T16:31:25.856Z,40.06
2023-03-17T16:34:00.672Z,41.42
2023-03-17T16:36:33.728Z,41.24
2023-03-17T16:39:10.248Z,41.27
2023-03-17T16:41:43.587Z,41.57
2023-03-17T16:44:18.339Z,42.25
2023-03-17T16:46:51.573Z,42.37
2023-03-17T16:49:27.215Z,42.30
2023-03-17T16:52:00.328Z,42.73
2023-03-17T16:54:33.542Z,42.94
2023-03-17T16:57:07.915Z,43.34
2023-03-17T16:59:41.258Z,42.94
2023-03-17T17:02:17.210Z,43.02
2023-03-17T17:04:52.338Z,43.23
2023-03-17T17:07:25.427Z,43.63
2023-03-17T17:09:58.598Z,44.20
2023-03-17T17:12:31.701Z,44.04
2023-03-17T17:15:05.501Z,44.78
2023-03-17T17:17:42.298Z,44.19
2023-03-17T17:20:21.310Z,44.79
2023-03-17T17:22:54.355Z,44.64
2023-03-17T17:25:30.007Z,44.61
2023-03-17T17:28:03.348Z,45.65
2023-03-17T17:30:36.673Z,47.75
2023-03-17T17:33:09.926Z,47.08
2023-03-17T17:35:45.394Z,47.92
2023-03-17T17:38:22.865Z,48.89
2023-03-17T17:40:58.364Z,50.43
2023-03-17T17:43:31.486Z,50.98
2023-03-17T17:46:04.745Z,51.59
2023-03-17T17:48:37.770Z,51.64
2023-03-17T17:51:12.147Z,52.81
2023-03-17T17:53:45.805Z,53.18
2023-03-17T17:56:19.477Z,51.24
2023-03-17T17:58:52.632Z,52.78
2023-03-17T18:01:25.726Z,52.59
2023-03-17T18:03:58.745Z,52.48
2023-03-17T18:06:33.473Z,53.48
2023-03-17T18:09:06.920Z,53.44
2023-03-17T18:11:41.453Z,54.84
2023-03-17T18:14:15.040Z,55.56
2023-03-17T18:16:48.261Z,57.28
2023-03-17T18:19:21.603Z,57.14
2023-03-17T18:21:56.204Z,58.45
2023-03-17T18:24:30.132Z,58.42
2023-03-17T18:27:03.832Z,61.02
2023-03-17T18:29:36.930Z,62.17
2023-03-17T18:32:11.111Z,61.88
2023-03-17T18:34:47.324Z,63.63
2023-03-17T18:37:21.929Z,64.03
2023-03-17T18:40:12.050Z,64.39
2023-03-17T18:42:47.337Z,64.82
2023-03-17T18:47:53.645Z,67.09
2023-03-17T18:50:27.282Z,66.88
2023-03-17T18:53:02.379Z,66.74
2023-03-17T18:55:35.635Z,67.77
2023-03-17T18:58:08.893Z,67.99
2023-03-17T19:00:42.185Z,68.85
2023-03-17T19:03:15.651Z,69.25
2023-03-17T19:05:49.031Z,69.54
2023-03-17T19:08:23.726Z,69.54
2023-03-17T19:10:56.772Z,69.75
2023-03-17T19:13:29.877Z,69.05
2023-03-17T19:16:03.556Z,68.74
2023-03-17T19:18:41.399Z,69.92
2023-03-17T19:21:16.870Z,70.79
2023-03-17T19:23:51.970Z,70.65
2023-03-17T19:26:25.077Z,71.80
2023-03-17T19:28:58.357Z,72.12
2023-03-17T19:31:31.454Z,73.00
2023-03-17T19:34:04.582Z,73.36
2023-03-17T19:36:39.689Z,73.66
2023-03-17T19:39:16.479Z,73.54
2023-03-17T19:41:53.160Z,73.23
2023-03-17T19:44:27.026Z,73.04
2023-03-17T19:47:04.953Z,73.39
2023-03-17T19:49:38.709Z,71.96
2023-03-17T19:52:11.900Z,72.23
2023-03-17T19:54:46.514Z,71.72
2023-03-17T19:57:20.857Z,72.64
2023-03-17T19:59:54.220Z,73.77
2023-03-17T20:02:27.317Z,74.75
2023-03-17T20:05:00.397Z,75.15
2023-03-17T20:07:33.752Z,75.48
2023-03-17T20:10:10.626Z,75.40
2023-03-17T20:12:45.685Z,75.72
2023-03-17T20:15:19.237Z,75.38
2023-03-17T20:17:52.402Z,75.58
2023-03-17T20:20:25.399Z,75.06
2023-03-17T20:22:59.022Z,75.79
2023-03-17T20:25:33.414Z,75.15
2023-03-17T20:28:06.882Z,76.19
2023-03-17T20:30:41.688Z,76.20
2023-03-17T20:33:15.256Z,76.24
2023-03-17T20:35:48.418Z,77.30
2023-03-17T20:38:21.681Z,77.68
2023-03-17T20:41:07.328Z,78.32
2023-03-17T20:43:40.626Z,78.65
2023-03-17T20:46:17.507Z,78.75
2023-03-17T20:48:52.033Z,78.99
2023-03-17T20:51:25.803Z,79.04
2023-03-17T20:54:00.670Z,80.00
2023-03-17T20:56:36.505Z,79.36
2023-03-17T20:59:09.648Z,80.58
2023-03-17T21:01:42.778Z,80.77
2023-03-17T21:04:17.246Z,80.60
2023-03-17T21:06:50.274Z,81.33
2023-03-17T21:09:23.518Z,81.90
2023-03-17T21:11:57.963Z,82.62
2023-03-17T21:14:31.090Z,83.29
2023-03-17T21:17:04.256Z,82.44
2023-03-17T21:19:37.942Z,82.18
2023-03-17T21:22:11.325Z,82.28
2023-03-17T21:24:44.537Z,81.93
2023-03-17T21:27:18.954Z,82.13
2023-03-17T21:29:52.205Z,81.47
2023-03-17T21:32:25.216Z,81.74
2023-03-17T21:34:58.384Z,81.57
2023-03-17T21:37:31.424Z,81.97
2023-03-17T21:40:07.211Z,83.07
2023-03-17T21:42:41.711Z,82.46
2023-03-17T21:45:14.897Z,83.66
2023-03-17T21:47:48.045Z,83.24
2023-03-17T21:50:21.748Z,83.60
2023-03-17T21:52:54.834Z,83.25
2023-03-17T21:55:27.833Z,84.98
2023-03-17T21:58:02.395Z,85.14
2023-03-17T22:00:44.743Z,84.29
2023-03-17T22:03:18.886Z,85.00
2023-03-17T22:05:52.624Z,85.70
2023-03-17T22:08:26.115Z,85.39
2023-03-17T22:11:00.062Z,85.88
2023-03-17T22:13:34.518Z,85.77
2023-03-17T22:16:09.156Z,86.91
2023-03-17T22:18:42.903Z,86.55
2023-03-17T22:21:16.152Z,85.54
2023-03-17T22:23:49.228Z,86.28
2023-03-17T22:26:23.440Z,85.61
2023-03-17T22:28:58.448Z,85.86
2023-03-17T22:31:31.700Z,86.94
2023-03-17T22:34:05.395Z,86.80
2023-03-17T22:36:38.555Z,87.29
2023-03-17T22:39:11.945Z,87.73
2023-03-17T22:41:45.438Z,87.68
2023-03-17T22:44:19.899Z,88.18
2023-03-17T22:46:52.968Z,88.75
2023-03-17T22:49:25.948Z,88.72
2023-03-17T22:51:58.986Z,89.56
2023-03-17T22:54:31.985Z,88.74
2023-03-17T22:57:05.675Z,88.93
2023-03-17T22:59:40.412Z,89.15
2023-03-17T23:02:13.367Z,89.41
2023-03-17T23:04:46.461Z,89.51
2023-03-17T23:07:20.249Z,89.99
2023-03-17T23:09:53.320Z,89.38
2023-03-17T23:12:28.162Z,89.37
2023-03-17T23:15:03.587Z,89.74
2023-03-17T23:17:36.631Z,90.02
2023-03-17T23:20:11.945Z,89.76
2023-03-17T23:22:45.020Z,89.63
2023-03-17T23:25:18.543Z,89.52
2023-03-17T23:27:51.610Z,89.62
2023-03-17T23:30:26.107Z,90.66
2023-03-17T23:32:59.394Z,90.36
2023-03-17T23:35:33.296Z,90.40
2023-03-17T23:38:06.633Z,90.09
2023-03-17T23:40:39.685Z,90.35
2023-03-17T23:43:13.299Z,90.51
2023-03-17T23:45:47.749Z,90.67
2023-03-17T23:48:23.394Z,90.43
2023-03-17T23:50:56.482Z,89.96
2023-03-17T23:53:29.474Z,90.53
2023-03-17T23:56:03.167Z,90.99
2023-03-17T23:58:36.472Z,91.38
